Time;durP1;ratioP1;P1;durP2;ratioP2;P2;SDS_P1;SDS_P2;PMS_P1;PMS_P2;Temp;Humidity;BMP_temperature;BMP_pressure;BME280_temperature;BME280_humidity;BME280_pressure;Samples;Min_cycle;Max_cycle;Signal;HPM_P1;HPM_P2
2021/04/26 00:01:13;;;;;;;17.85;8.95;;;12.60;73.80;;;;;;5037504;28;20064;-72
2021/04/26 00:03:39;;;;;;;17.17;8.02;;;12.50;73.30;;;;;;5037651;28;20025;-72
2021/04/26 00:06:05;;;;;;;19.80;8.73;;;12.40;72.40;;;;;;5037400;28;20372;-72
2021/04/26 00:08:31;;;;;;;17.77;8.40;;;12.30;72.00;;;;;;5037328;28;20064;-72
2021/04/26 00:10:57;;;;;;;16.55;8.70;;;12.30;73.70;;;;;;5037325;28;20049;-72
2021/04/26 00:13:22;;;;;;;19.60;8.90;;;12.30;74.20;;;;;;5037478;28;20026;-72
2021/04/26 00:15:48;;;;;;;19.88;9.95;;;12.30;73.70;;;;;;5037503;28;20044;-73
2021/04/26 00:18:14;;;;;;;18.15;9.68;;;12.20;72.50;;;;;;5037371;28;20026;-74
2021/04/26 00:20:41;;;;;;;18.67;8.45;;;12.20;72.90;;;;;;5037452;28;20283;-74
2021/04/26 00:23:07;;;;;;;18.20;8.65;;;12.20;72.50;;;;;;5037371;28;20353;-74
2021/04/26 00:25:33;;;;;;;16.65;8.10;;;12.30;72.60;;;;;;5036959;28;20030;-72
2021/04/26 00:27:59;;;;;;;12.32;7.53;;;12.40;73.40;;;;;;5036969;28;20422;-72
2021/04/26 00:30:26;;;;;;;13.40;8.20;;;12.50;74.10;;;;;;5037011;28;20325;-74
2021/04/26 00:32:53;;;;;;;17.42;9.23;;;12.50;73.90;;;;;;5036933;28;20374;-72
2021/04/26 00:35:20;;;;;;;12.70;7.68;;;12.60;73.00;;;;;;5037147;28;20112;-72
2021/04/26 00:37:47;;;;;;;15.75;9.20;;;12.80;72.10;;;;;;5036600;28;20421;-72
2021/04/26 00:40:13;;;;;;;19.52;10.82;;;12.90;70.70;;;;;;5037180;28;20034;-72
2021/04/26 00:42:39;;;;;;;14.70;10.30;;;13.00;71.50;;;;;;5037114;28;20057;-72
2021/04/26 00:45:17;;;;;;;16.25;9.43;;;13.10;71.40;;;;;;5036997;28;20044;-72
2021/04/26 00:47:44;;;;;;;14.05;7.65;;;13.20;73.30;;;;;;5036739;28;20025;-74
2021/04/26 00:50:21;;;;;;;11.90;8.45;;;13.30;74.40;;;;;;5036742;28;20076;-74
2021/04/26 00:52:49;;;;;;;12.30;8.60;;;13.30;74.50;;;;;;5036617;28;20034;-74
2021/04/26 00:55:15;;;;;;;19.25;10.45;;;13.40;74.90;;;;;;5036568;28;20432;-74
2021/04/26 00:57:41;;;;;;;13.45;9.23;;;13.30;75.20;;;;;;5036816;28;20076;-74
2021/04/26 01:00:08;;;;;;;14.18;9.70;;;13.30;74.90;;;;;;5036941;28;20018;-72
2021/04/26 01:02:34;;;;;;;14.88;8.75;;;13.30;75.00;;;;;;5036581;28;20406;-72
2021/04/26 01:05:00;;;;;;;12.13;7.97;;;13.30;74.70;;;;;;5036764;28;20022;-72
2021/04/26 01:07:28;;;;;;;13.50;7.88;;;13.30;74.40;;;;;;5036551;28;20025;-72
2021/04/26 01:09:54;;;;;;;12.98;7.95;;;13.20;74.10;;;;;;5038628;28;20056;-74
2021/04/26 01:12:42;;;;;;;14.65;7.75;;;13.20;72.80;;;;;;5040917;28;20064;-74
2021/04/26 01:15:08;;;;;;;13.80;8.07;;;13.20;72.00;;;;;;5040491;28;20115;-72
2021/04/26 01:17:40;;;;;;;14.80;7.97;;;13.20;71.90;;;;;;5040418;28;20065;-72
2021/04/26 01:20:30;;;;;;;14.43;8.05;;;13.30;71.90;;;;;;5040810;28;20341;-72
2021/04/26 01:23:33;;;;;;;15.30;7.80;;;13.30;72.50;;;;;;5040351;28;20056;-72
2021/04/26 01:26:01;;;;;;;11.98;7.15;;;13.30;71.80;;;;;;5040643;28;20041;-72
2021/04/26 01:28:46;;;;;;;16.73;9.68;;;13.30;72.00;;;;;;5040611;28;20365;-72
2021/04/26 01:31:20;;;;;;;18.70;8.70;;;13.20;72.30;;;;;;5040579;28;20037;-72
2021/04/26 01:33:57;;;;;;;17.15;7.65;;;13.10;72.30;;;;;;5040711;28;20334;-72
2021/04/26 01:36:27;;;;;;;17.05;7.68;;;13.10;72.20;;;;;;5040421;28;20052;-72
2021/04/26 01:38:55;;;;;;;15.13;8.00;;;13.20;73.70;;;;;;5040143;28;20133;-72
2021/04/26 01:41:23;;;;;;;17.80;8.45;;;13.30;72.10;;;;;;5040369;28;20025;-72
2021/04/26 01:43:51;;;;;;;15.68;8.23;;;13.20;71.90;;;;;;5039975;28;20030;-72
2021/04/26 01:46:17;;;;;;;18.35;8.30;;;13.20;71.70;;;;;;5040023;28;20021;-72
2021/04/26 01:48:47;;;;;;;18.33;8.35;;;13.00;72.40;;;;;;5040261;28;20029;-72
2021/04/26 01:51:14;;;;;;;17.80;8.57;;;12.90;71.50;;;;;;5039887;28;20061;-72
2021/04/26 01:53:42;;;;;;;15.38;8.15;;;12.80;70.40;;;;;;5040168;28;20034;-72
2021/04/26 01:56:10;;;;;;;15.55;7.60;;;12.80;71.00;;;;;;5040132;28;20083;-72
2021/04/26 01:58:46;;;;;;;15.25;8.18;;;12.70;70.90;;;;;;5039987;28;20112;-72
2021/04/26 02:01:17;;;;;;;17.90;8.75;;;12.60;71.00;;;;;;5040108;28;20026;-72
2021/04/26 02:03:53;;;;;;;17.38;8.70;;;12.70;71.00;;;;;;5039650;28;20080;-72
2021/04/26 02:06:19;;;;;;;14.93;7.87;;;12.70;71.00;;;;;;5039980;28;20021;-72
2021/04/26 02:08:45;;;;;;;15.88;8.10;;;12.70;70.30;;;;;;5039904;28;20036;-72
2021/04/26 02:11:14;;;;;;;16.75;7.97;;;12.60;70.40;;;;;;5039869;28;20029;-72
2021/04/26 02:13:42;;;;;;;16.67;8.55;;;12.50;70.80;;;;;;5039770;28;20053;-72
2021/04/26 02:16:08;;;;;;;14.68;7.82;;;12.40;71.50;;;;;;5039490;28;20029;-72
2021/04/26 02:18:34;;;;;;;20.55;8.52;;;12.30;72.60;;;;;;5039654;28;20029;-72
2021/04/26 02:21:01;;;;;;;14.55;7.80;;;12.20;73.80;;;;;;5039580;28;20029;-74
2021/04/26 02:23:29;;;;;;;17.58;8.57;;;12.10;74.10;;;;;;5039573;28;20060;-72
2021/04/26 02:25:55;;;;;;;15.57;8.88;;;12.00;74.50;;;;;;5039240;28;20037;-74
2021/04/26 02:28:21;;;;;;;19.75;11.10;;;11.90;74.10;;;;;;5039235;28;20022;-74
2021/04/26 02:30:50;;;;;;;17.30;9.98;;;11.80;73.50;;;;;;5039244;28;20116;-74
2021/04/26 02:33:22;;;;;;;18.92;9.85;;;11.80;72.90;;;;;;5039151;28;20046;-74
2021/04/26 02:35:52;;;;;;;22.15;10.40;;;11.90;71.40;;;;;;5039463;28;20036;-72
2021/04/26 02:38:39;;;;;;;19.63;9.85;;;12.00;70.80;;;;;;5038771;28;20056;-72
2021/04/26 02:41:11;;;;;;;16.80;9.45;;;12.20;71.20;;;;;;5038847;28;20084;-74
2021/04/26 02:43:50;;;;;;;13.82;8.98;;;12.40;71.50;;;;;;5038869;28;20112;-74
2021/04/26 02:46:21;;;;;;;13.68;8.30;;;12.50;71.90;;;;;;5038915;28;20032;-72
2021/04/26 02:48:47;;;;;;;12.07;8.75;;;12.60;72.40;;;;;;5038888;28;20030;-74
2021/04/26 02:51:15;;;;;;;14.75;9.68;;;12.60;72.70;;;;;;5039105;28;20039;-74
2021/04/26 02:53:42;;;;;;;15.38;9.75;;;12.60;72.70;;;;;;5039065;28;20026;-74
2021/04/26 02:56:14;;;;;;;20.60;9.82;;;12.60;73.20;;;;;;5039002;28;20116;-72
2021/04/26 02:58:43;;;;;;;15.15;10.40;;;12.70;73.10;;;;;;5038896;28;20031;-72
2021/04/26 03:01:10;;;;;;;12.70;9.15;;;12.70;73.60;;;;;;5038600;28;20022;-72
2021/04/26 03:03:38;;;;;;;16.35;9.68;;;12.70;73.90;;;;;;5038814;28;20022;-74
2021/04/26 03:06:05;;;;;;;14.35;9.55;;;12.60;73.70;;;;;;5038827;28;20045;-72
2021/04/26 03:08:32;;;;;;;12.07;9.07;;;12.50;74.30;;;;;;5038759;28;20033;-74
2021/04/26 03:10:58;;;;;;;12.07;8.70;;;12.50;74.20;;;;;;5038481;28;20299;-72
2021/04/26 03:13:27;;;;;;;11.77;8.32;;;12.60;74.50;;;;;;5038614;28;20030;-72
2021/04/26 03:15:54;;;;;;;10.05;7.78;;;12.60;74.20;;;;;;5038646;28;20026;-72
2021/04/26 03:18:19;;;;;;;14.63;7.97;;;12.70;74.00;;;;;;5038497;28;20037;-72
2021/04/26 03:20:46;;;;;;;12.90;8.35;;;12.70;74.20;;;;;;5038600;28;20291;-72
2021/04/26 03:23:18;;;;;;;9.30;7.72;;;12.60;73.80;;;;;;5038489;28;20295;-72
2021/04/26 03:25:44;;;;;;;10.55;8.10;;;12.60;74.20;;;;;;5038063;28;20535;-72
2021/04/26 03:28:11;;;;;;;9.80;7.93;;;12.60;75.30;;;;;;5038424;28;20124;-72
2021/04/26 03:30:38;;;;;;;8.75;6.93;;;12.60;74.50;;;;;;5038429;28;20025;-72
2021/04/26 03:33:05;;;;;;;8.18;6.47;;;12.60;75.10;;;;;;5037767;28;20029;-72
2021/04/26 03:35:32;;;;;;;10.82;7.82;;;12.60;74.40;;;;;;5037893;28;20030;-72
2021/04/26 03:37:58;;;;;;;9.55;7.22;;;12.60;73.70;;;;;;5037931;28;20033;-72
2021/04/26 03:40:25;;;;;;;11.48;7.80;;;12.70;73.70;;;;;;5038423;28;20075;-74
2021/04/26 03:42:56;;;;;;;7.53;6.47;;;12.80;74.20;;;;;;5037844;28;20025;-74
2021/04/26 03:45:22;;;;;;;10.55;6.63;;;12.80;73.00;;;;;;5037727;28;20075;-72
2021/04/26 03:47:48;;;;;;;11.18;6.07;;;12.80;73.10;;;;;;5038079;28;20302;-74
2021/04/26 03:50:14;;;;;;;9.93;6.45;;;12.80;72.80;;;;;;5037726;28;20028;-74
2021/04/26 03:52:41;;;;;;;8.40;6.25;;;12.90;73.10;;;;;;5037872;28;20040;-74
2021/04/26 03:55:10;;;;;;;9.57;7.18;;;12.80;73.50;;;;;;5037838;28;20034;-74
2021/04/26 03:57:35;;;;;;;7.53;5.45;;;12.70;73.00;;;;;;5037488;28;20036;-74
2021/04/26 04:00:02;;;;;;;8.70;5.55;;;12.70;73.30;;;;;;5037521;28;20021;-74
2021/04/26 04:02:28;;;;;;;10.43;5.65;;;12.70;73.00;;;;;;5037489;28;20026;-72
2021/04/26 04:04:57;;;;;;;7.82;5.90;;;12.60;73.40;;;;;;5037367;28;20029;-74
2021/04/26 04:07:24;;;;;;;10.02;5.03;;;12.60;73.20;;;;;;5037388;28;20030;-72
2021/04/26 04:09:50;;;;;;;7.75;5.10;;;12.70;72.90;;;;;;5037350;28;20036;-72
2021/04/26 04:12:16;;;;;;;7.00;5.35;;;12.60;73.10;;;;;;5037277;28;20112;-72
2021/04/26 04:14:41;;;;;;;8.18;5.90;;;12.50;73.80;;;;;;5037229;28;20056;-71
2021/04/26 04:17:07;;;;;;;8.82;5.13;;;12.50;74.00;;;;;;5037132;28;20026;-71
2021/04/26 04:19:33;;;;;;;9.80;5.47;;;12.50;74.20;;;;;;5037505;28;20024;-71
2021/04/26 04:22:00;;;;;;;7.97;5.28;;;12.50;74.30;;;;;;5037398;28;20467;-72
2021/04/26 04:24:25;;;;;;;7.22;5.30;;;12.50;74.20;;;;;;5037361;28;20025;-72
2021/04/26 04:26:51;;;;;;;7.32;5.85;;;12.40;74.20;;;;;;5037051;28;20096;-72
2021/04/26 04:29:17;;;;;;;11.70;5.93;;;12.40;74.20;;;;;;5036976;28;20117;-71
2021/04/26 04:31:42;;;;;;;7.93;5.53;;;12.30;74.80;;;;;;5037275;28;20036;-72
2021/04/26 04:34:08;;;;;;;8.90;5.25;;;12.20;75.00;;;;;;5037202;28;20472;-71
2021/04/26 04:36:33;;;;;;;13.82;7.13;;;12.20;75.30;;;;;;5037117;28;20072;-71
2021/04/26 04:38:59;;;;;;;7.38;6.03;;;12.10;75.60;;;;;;5036672;28;20137;-71
2021/04/26 04:41:25;;;;;;;8.10;5.45;;;12.00;76.30;;;;;;5037134;28;20025;-74
2021/04/26 04:43:50;;;;;;;6.55;5.05;;;12.00;75.90;;;;;;5036163;28;20429;-74
2021/04/26 04:46:17;;;;;;;7.85;5.20;;;12.10;76.40;;;;;;5037076;28;20028;-72
2021/04/26 04:48:44;;;;;;;8.90;4.80;;;12.20;76.30;;;;;;5037046;28;20029;-71
2021/04/26 04:51:12;;;;;;;8.63;5.72;;;12.20;76.70;;;;;;5037025;28;20041;-74
2021/04/26 04:53:38;;;;;;;9.25;5.00;;;12.10;77.20;;;;;;5036791;28;20318;-74
2021/04/26 04:56:05;;;;;;;6.70;5.38;;;12.20;77.10;;;;;;5036647;28;20040;-71
2021/04/26 04:58:30;;;;;;;11.05;5.93;;;12.20;77.30;;;;;;5036862;28;20041;-74
2021/04/26 05:00:56;;;;;;;8.02;5.10;;;12.20;77.40;;;;;;5036908;28;20025;-74
2021/04/26 05:03:22;;;;;;;7.90;5.43;;;12.20;77.50;;;;;;5036544;28;20082;-74
2021/04/26 05:05:48;;;;;;;7.03;5.25;;;12.20;77.20;;;;;;5036540;28;20029;-74
2021/04/26 05:08:13;;;;;;;8.07;5.00;;;12.30;77.20;;;;;;5036847;28;20025;-74
2021/04/26 05:10:39;;;;;;;7.60;5.13;;;12.20;76.90;;;;;;5036834;28;20393;-74
2021/04/26 05:13:05;;;;;;;11.20;5.05;;;12.20;77.60;;;;;;5036808;28;20071;-71
2021/04/26 05:15:30;;;;;;;10.18;5.40;;;12.30;77.30;;;;;;5036368;28;20037;-71
2021/04/26 05:17:57;;;;;;;8.50;5.22;;;12.30;76.90;;;;;;5036672;28;20032;-71
2021/04/26 05:20:23;;;;;;;8.93;5.85;;;12.30;76.50;;;;;;5036463;28;20406;-71
2021/04/26 05:22:49;;;;;;;6.65;5.00;;;12.30;77.00;;;;;;5036610;28;20110;-71
2021/04/26 05:25:15;;;;;;;8.18;5.60;;;12.30;76.30;;;;;;5036621;28;20099;-71
2021/04/26 05:27:41;;;;;;;7.88;5.70;;;12.20;76.30;;;;;;5036675;28;20022;-72
2021/04/26 05:30:08;;;;;;;9.27;5.22;;;12.20;76.90;;;;;;5036639;28;20124;-71
2021/04/26 05:32:34;;;;;;;6.90;5.45;;;12.10;76.90;;;;;;5036357;28;20026;-72
2021/04/26 05:35:00;;;;;;;10.50;5.55;;;12.10;77.50;;;;;;5036577;28;20116;-71
2021/04/26 05:37:26;;;;;;;8.02;6.15;;;12.00;77.60;;;;;;5036510;28;20313;-72
2021/04/26 05:39:52;;;;;;;10.65;5.30;;;12.00;76.70;;;;;;5036104;28;20050;-72
2021/04/26 05:42:18;;;;;;;9.75;6.00;;;11.90;76.30;;;;;;5036557;28;20022;-72
2021/04/26 05:44:43;;;;;;;7.43;5.65;;;11.90;76.60;;;;;;5036507;28;20024;-72
2021/04/26 05:47:09;;;;;;;9.10;5.57;;;11.90;76.80;;;;;;5036471;28;20159;-72
2021/04/26 05:49:34;;;;;;;8.63;5.05;;;11.90;76.60;;;;;;5036505;28;20109;-74
2021/04/26 05:52:00;;;;;;;7.95;5.38;;;11.90;76.00;;;;;;5036154;28;20038;-72
2021/04/26 05:54:26;;;;;;;7.50;5.38;;;12.00;75.50;;;;;;5036404;28;20044;-72
2021/04/26 05:56:51;;;;;;;10.48;5.30;;;12.00;76.00;;;;;;5039423;28;20033;-72
2021/04/26 05:59:17;;;;;;;7.70;5.80;;;12.10;76.00;;;;;;5039853;28;20032;-72
2021/04/26 06:01:43;;;;;;;9.65;6.30;;;12.00;75.80;;;;;;5040066;28;20045;-72
2021/04/26 06:04:08;;;;;;;7.05;5.70;;;12.00;76.50;;;;;;5039901;28;20428;-72
2021/04/26 06:06:34;;;;;;;8.82;5.85;;;11.90;76.50;;;;;;5039985;28;20068;-72
2021/04/26 06:09:00;;;;;;;7.88;5.68;;;12.00;76.90;;;;;;5039613;28;20117;-72
2021/04/26 06:11:25;;;;;;;12.23;5.55;;;12.10;76.30;;;;;;5039934;28;20024;-72
2021/04/26 06:13:51;;;;;;;8.50;5.55;;;12.10;75.50;;;;;;5039444;28;20418;-72
2021/04/26 06:16:17;;;;;;;9.75;5.93;;;12.10;75.20;;;;;;5039805;28;20029;-74
2021/04/26 06:18:43;;;;;;;10.85;6.82;;;12.00;74.90;;;;;;5039644;28;20030;-74
2021/04/26 06:21:09;;;;;;;9.32;6.05;;;11.90;74.90;;;;;;5039744;28;20028;-72
2021/04/26 06:23:34;;;;;;;8.18;6.22;;;11.80;75.70;;;;;;5039441;28;20106;-72
2021/04/26 06:26:00;;;;;;;12.25;6.07;;;11.80;74.20;;;;;;5039288;28;20037;-72
2021/04/26 06:28:26;;;;;;;10.40;6.10;;;11.70;73.50;;;;;;5039555;28;20095;-72
2021/04/26 06:30:52;;;;;;;12.48;6.25;;;11.70;73.90;;;;;;5039531;28;20025;-72
2021/04/26 06:33:17;;;;;;;13.45;6.45;;;11.60;73.90;;;;;;5039479;28;20040;-72
2021/04/26 06:35:49;;;;;;;9.18;5.97;;;11.50;74.20;;;;;;5039083;28;20026;-72
2021/04/26 06:38:15;;;;;;;11.55;5.70;;;11.50;74.60;;;;;;5039099;28;20050;-72
2021/04/26 06:40:41;;;;;;;7.47;5.95;;;11.60;74.00;;;;;;5038992;28;20037;-72
2021/04/26 06:43:08;;;;;;;8.02;5.60;;;11.70;74.20;;;;;;5039271;28;20033;-72
2021/04/26 06:45:34;;;;;;;10.25;5.93;;;11.70;73.40;;;;;;5038838;28;20021;-72
2021/04/26 06:48:00;;;;;;;10.13;6.28;;;11.80;73.20;;;;;;5038937;28;20033;-72
2021/04/26 06:50:26;;;;;;;10.73;6.00;;;11.70;72.90;;;;;;5038926;28;20021;-74
2021/04/26 06:52:56;;;;;;;9.20;6.22;;;11.70;72.90;;;;;;5039020;28;20298;-74
2021/04/26 06:55:24;;;;;;;8.20;5.88;;;11.70;73.30;;;;;;5039009;28;20394;-74
2021/04/26 06:57:50;;;;;;;10.60;5.60;;;11.70;73.10;;;;;;5038919;28;20055;-74
2021/04/26 07:00:17;;;;;;;11.15;5.65;;;11.70;73.00;;;;;;5039008;28;20026;-74
2021/04/26 07:02:42;;;;;;;7.20;5.32;;;11.60;72.70;;;;;;5038980;28;20025;-74
2021/04/26 07:05:09;;;;;;;10.32;5.15;;;11.60;73.90;;;;;;5038874;28;20283;-74
2021/04/26 07:07:35;;;;;;;14.13;6.22;;;11.80;73.10;;;;;;5037919;28;20321;-74
2021/04/26 07:10:02;;;;;;;10.75;6.00;;;11.80;74.50;;;;;;5038834;28;20028;-74
2021/04/26 07:12:28;;;;;;;7.97;6.22;;;11.70;75.00;;;;;;5038760;28;20033;-74
2021/04/26 07:14:56;;;;;;;10.20;5.78;;;11.60;76.10;;;;;;5038361;28;20032;-72
2021/04/26 07:17:23;;;;;;;8.80;5.40;;;11.40;75.70;;;;;;5038265;28;20115;-74
2021/04/26 07:19:49;;;;;;;9.15;6.30;;;11.40;75.10;;;;;;5038621;28;20101;-74
2021/04/26 07:22:15;;;;;;;9.00;5.82;;;11.40;75.70;;;;;;5038273;28;20120;-74
2021/04/26 07:24:41;;;;;;;9.48;5.70;;;11.50;74.50;;;;;;5038645;28;20096;-74
2021/04/26 07:27:07;;;;;;;12.00;7.35;;;11.60;74.30;;;;;;5038496;28;20037;-72
2021/04/26 07:29:32;;;;;;;6.88;5.75;;;11.70;74.00;;;;;;5038463;28;20049;-72
2021/04/26 07:31:58;;;;;;;8.52;6.18;;;11.70;73.20;;;;;;5038367;28;20036;-74
2021/04/26 07:34:24;;;;;;;11.82;5.68;;;11.60;73.30;;;;;;5038277;28;20352;-72
2021/04/26 07:36:49;;;;;;;8.52;5.40;;;11.70;73.70;;;;;;5038224;28;20030;-74
2021/04/26 07:39:15;;;;;;;8.18;5.13;;;11.80;72.40;;;;;;5037718;28;20045;-72
2021/04/26 07:41:41;;;;;;;10.10;5.50;;;11.90;70.30;;;;;;5037896;28;20032;-72
2021/04/26 07:44:07;;;;;;;11.55;5.43;;;12.00;70.30;;;;;;5037779;28;20108;-72
2021/04/26 07:46:33;;;;;;;9.95;5.57;;;12.10;69.70;;;;;;5038057;28;20067;-72
2021/04/26 07:48:59;;;;;;;7.53;5.45;;;12.20;70.80;;;;;;5037767;28;20057;-72
2021/04/26 07:51:25;;;;;;;11.45;5.50;;;12.10;69.40;;;;;;5037748;28;20033;-72
2021/04/26 07:53:50;;;;;;;10.30;5.43;;;12.20;70.40;;;;;;5037797;28;20029;-73
2021/04/26 07:56:16;;;;;;;7.20;4.95;;;12.20;69.70;;;;;;5037902;28;20116;-72
2021/04/26 07:58:42;;;;;;;8.98;5.38;;;12.30;71.30;;;;;;5037794;28;20436;-72
2021/04/26 08:01:08;;;;;;;10.07;5.10;;;12.40;70.30;;;;;;5037833;28;20101;-72
2021/04/26 08:03:33;;;;;;;10.50;5.13;;;12.60;69.10;;;;;;5037415;28;20021;-72
2021/04/26 08:05:59;;;;;;;6.43;5.10;;;12.60;70.40;;;;;;5037736;28;20037;-72
2021/04/26 08:08:25;;;;;;;11.35;5.93;;;12.70;70.20;;;;;;5037369;28;20423;-72
2021/04/26 08:10:50;;;;;;;12.80;5.95;;;12.90;69.80;;;;;;5037654;28;20032;-72
2021/04/26 08:13:17;;;;;;;8.60;5.15;;;12.90;69.20;;;;;;5037370;28;20445;-72
2021/04/26 08:15:43;;;;;;;10.77;5.53;;;13.00;69.30;;;;;;5037154;28;20422;-72
2021/04/26 08:18:09;;;;;;;6.50;5.15;;;13.10;68.40;;;;;;5036943;28;20037;-72
2021/04/26 08:20:38;;;;;;;7.78;5.32;;;13.20;68.60;;;;;;5037199;28;20030;-72
2021/04/26 08:23:04;;;;;;;8.13;4.97;;;13.30;67.20;;;;;;5037313;28;20056;-72
2021/04/26 08:25:30;;;;;;;11.80;5.05;;;13.40;68.30;;;;;;5037030;28;20062;-72
2021/04/26 08:27:57;;;;;;;7.75;5.45;;;13.60;67.70;;;;;;5037350;28;20037;-72
2021/04/26 08:30:23;;;;;;;9.15;6.28;;;13.80;65.80;;;;;;5037325;28;20033;-72
2021/04/26 08:32:49;;;;;;;6.22;4.90;;;14.00;66.30;;;;;;5037299;28;20086;-72
2021/04/26 08:35:15;;;;;;;8.55;5.32;;;14.30;67.20;;;;;;5037179;28;20025;-72
2021/04/26 08:37:41;;;;;;;7.68;5.32;;;14.60;66.60;;;;;;5036805;28;20307;-73
2021/04/26 08:40:08;;;;;;;8.98;5.55;;;14.70;65.30;;;;;;5036712;28;20091;-72
2021/04/26 08:42:34;;;;;;;7.07;5.38;;;14.70;65.20;;;;;;5037172;28;20040;-72
2021/04/26 08:45:00;;;;;;;9.18;5.40;;;14.70;63.90;;;;;;5036741;28;20064;-72
2021/04/26 08:47:27;;;;;;;7.55;4.90;;;14.40;63.40;;;;;;5036736;28;20108;-72
2021/04/26 08:49:58;;;;;;;8.75;5.10;;;14.10;65.20;;;;;;5036750;28;20040;-72
2021/04/26 08:52:24;;;;;;;7.85;5.20;;;13.80;64.70;;;;;;5037064;28;20036;-72
2021/04/26 08:54:50;;;;;;;8.40;5.88;;;13.50;67.10;;;;;;5037129;28;20036;-72
2021/04/26 08:57:16;;;;;;;8.98;5.03;;;13.20;66.10;;;;;;5036893;28;20318;-74
2021/04/26 08:59:42;;;;;;;8.27;4.60;;;13.00;67.30;;;;;;5036973;28;20405;-72
2021/04/26 09:02:09;;;;;;;11.52;5.30;;;12.70;67.80;;;;;;5036595;28;20036;-74
2021/04/26 09:04:36;;;;;;;8.30;5.18;;;12.40;70.50;;;;;;5036799;28;20101;-74
2021/04/26 09:07:13;;;;;;;6.65;4.88;;;12.30;72.10;;;;;;5036571;28;20444;-74
2021/04/26 09:09:40;;;;;;;8.38;6.00;;;12.20;71.40;;;;;;5036570;28;20053;-74
2021/04/26 09:12:10;;;;;;;11.05;5.55;;;12.20;74.10;;;;;;5036864;28;20152;-74
2021/04/26 09:14:40;;;;;;;8.60;5.63;;;12.00;74.60;;;;;;5036731;28;20422;-74
2021/04/26 09:17:25;;;;;;;10.30;5.93;;;11.90;74.90;;;;;;5036736;28;20421;-74
2021/04/26 09:19:56;;;;;;;11.13;5.95;;;11.50;77.50;;;;;;5036508;28;20032;-74
2021/04/26 09:22:46;;;;;;;9.80;5.78;;;11.30;78.80;;;;;;5036610;28;20022;-71
2021/04/26 09:25:28;;;;;;;11.73;6.45;;;11.00;78.70;;;;;;5036334;28;20022;-71
2021/04/26 09:27:53;;;;;;;11.30;5.82;;;10.60;79.00;;;;;;5036425;28;20033;-73
2021/04/26 09:30:48;;;;;;;16.50;7.03;;;10.40;81.00;;;;;;5037748;28;20043;-74
2021/04/26 09:33:43;;;;;;;12.50;6.70;;;10.30;81.30;;;;;;5040604;28;20023;-74
2021/04/26 09:36:18;;;;;;;9.80;6.57;;;10.20;82.00;;;;;;5040622;28;20033;-71
2021/04/26 09:38:52;;;;;;;12.38;6.65;;;10.00;83.30;;;;;;5040114;28;20338;-71
2021/04/26 09:41:22;;;;;;;14.50;6.45;;;9.90;82.70;;;;;;5040150;28;20033;-74
2021/04/26 09:44:02;;;;;;;7.75;6.85;;;9.90;82.00;;;;;;5040058;28;20025;-74
2021/04/26 09:46:51;;;;;;;9.82;6.97;;;10.00;83.00;;;;;;5040378;28;20029;-72
2021/04/26 09:49:18;;;;;;;11.32;7.18;;;10.00;83.50;;;;;;5040015;28;20021;-74
2021/04/26 09:51:47;;;;;;;9.38;6.63;;;10.00;83.40;;;;;;5040003;28;20049;-74
2021/04/26 09:54:12;;;;;;;9.75;7.25;;;10.00;83.80;;;;;;5040193;28;20041;-74
2021/04/26 09:56:43;;;;;;;11.43;7.32;;;10.10;85.40;;;;;;5039886;28;20067;-74
2021/04/26 09:59:10;;;;;;;10.13;7.30;;;10.30;85.20;;;;;;5040109;28;20034;-74
2021/04/26 10:01:36;;;;;;;9.75;7.00;;;10.50;84.80;;;;;;5040157;28;20109;-74
2021/04/26 10:04:04;;;;;;;11.45;7.53;;;10.80;84.10;;;;;;5039715;28;20017;-74
2021/04/26 10:06:29;;;;;;;8.80;6.28;;;11.00;82.60;;;;;;5039985;28;20026;-74
2021/04/26 10:09:00;;;;;;;10.88;6.45;;;11.10;81.80;;;;;;5039957;28;20029;-74
2021/04/26 10:11:28;;;;;;;9.60;6.72;;;11.30;79.70;;;;;;5039940;28;20026;-74
2021/04/26 10:14:06;;;;;;;11.77;7.10;;;11.40;81.30;;;;;;5038463;28;20099;-74
2021/04/26 10:16:37;;;;;;;8.90;7.50;;;11.50;81.60;;;;;;5052176;28;20032;-71
2021/04/26 10:19:05;;;;;;;8.98;6.82;;;11.70;80.00;;;;;;5039661;28;20040;-71
2021/04/26 10:21:32;;;;;;;11.85;7.10;;;11.90;77.50;;;;;;5039758;28;20068;-71
2021/04/26 10:24:10;;;;;;;10.60;7.18;;;12.00;79.80;;;;;;5039672;28;20087;-71
2021/04/26 10:26:48;;;;;;;9.68;7.80;;;12.20;79.10;;;;;;5039680;28;20100;-71
2021/04/26 10:29:26;;;;;;;10.35;8.15;;;12.40;80.40;;;;;;5039316;28;20029;-71
2021/04/26 10:32:00;;;;;;;11.95;7.75;;;12.50;77.10;;;;;;5039545;28;20160;-73
2021/04/26 10:34:35;;;;;;;14.07;7.90;;;12.60;78.00;;;;;;5039061;28;20033;-71
2021/04/26 10:37:03;;;;;;;14.73;7.88;;;12.80;77.40;;;;;;5039055;28;20040;-71
2021/04/26 10:39:34;;;;;;;11.35;7.28;;;12.80;78.80;;;;;;5038958;28;20124;-71
2021/04/26 10:42:06;;;;;;;12.45;7.05;;;12.70;78.40;;;;;;5038021;28;20029;-71
2021/04/26 10:44:41;;;;;;;10.40;7.05;;;12.60;78.60;;;;;;5039205;28;20029;-72
2021/04/26 10:47:23;;;;;;;11.20;7.15;;;12.60;78.10;;;;;;5038947;28;20029;-72
2021/04/26 10:50:08;;;;;;;11.75;7.07;;;12.60;78.00;;;;;;5039205;28;20048;-71
2021/04/26 10:52:38;;;;;;;11.30;7.60;;;12.50;79.50;;;;;;5038680;28;20034;-71
2021/04/26 10:55:19;;;;;;;9.77;6.35;;;12.50;77.20;;;;;;5038640;28;20059;-71
2021/04/26 10:57:48;;;;;;;7.57;6.28;;;12.50;75.70;;;;;;5039013;28;20357;-71
2021/04/26 11:00:37;;;;;;;8.45;6.20;;;12.40;75.40;;;;;;5039064;28;20041;-71
2021/04/26 11:03:05;;;;;;;8.98;6.63;;;12.40;74.70;;;;;;5038165;28;20087;-71
2021/04/26 11:05:36;;;;;;;9.88;6.55;;;12.40;75.10;;;;;;5038805;28;20314;-72
2021/04/26 11:10:50;;;;;;;9.05;6.57;;;12.70;74.60;;;;;;5038618;28;20314;-74
2021/04/26 11:13:31;;;;;;;8.82;6.47;;;12.90;74.30;;;;;;5038824;28;20113;-74
2021/04/26 11:16:16;;;;;;;11.00;6.00;;;13.10;74.40;;;;;;5038392;28;20094;-71
2021/04/26 11:18:54;;;;;;;9.73;6.45;;;13.30;73.90;;;;;;5038282;28;20079;-74
2021/04/26 11:21:42;;;;;;;11.80;5.88;;;13.40;76.60;;;;;;5038657;28;20359;-71
2021/04/26 11:24:31;;;;;;;9.88;5.30;;;13.50;73.70;;;;;;5038603;28;20033;-74
2021/04/26 11:27:08;;;;;;;7.50;5.15;;;13.50;71.50;;;;;;5037709;28;20418;-74
2021/04/26 11:29:55;;;;;;;8.90;5.13;;;13.40;71.10;;;;;;5038442;28;20365;-74
2021/04/26 11:32:22;;;;;;;7.00;5.38;;;13.50;72.80;;;;;;5037500;28;20307;-74
2021/04/26 11:34:53;;;;;;;9.52;5.63;;;13.40;71.20;;;;;;5037985;28;20056;-71
2021/04/26 11:37:18;;;;;;;8.85;6.15;;;13.50;75.10;;;;;;5038250;28;20057;-71
2021/04/26 11:39:45;;;;;;;7.80;6.38;;;13.50;75.00;;;;;;5037866;28;20366;-71
2021/04/26 11:42:20;;;;;;;8.30;6.03;;;13.40;73.20;;;;;;5038230;28;20026;-71
2021/04/26 11:44:45;;;;;;;11.27;6.35;;;13.20;73.80;;;;;;5037798;28;20036;-72
2021/04/26 11:47:14;;;;;;;11.48;6.32;;;13.10;74.70;;;;;;5037829;28;20025;-71
2021/04/26 11:49:42;;;;;;;7.90;6.85;;;13.00;74.00;;;;;;5038128;28;20134;-71
2021/04/26 11:52:12;;;;;;;9.20;6.60;;;13.10;75.40;;;;;;5038062;28;20349;-71
2021/04/26 11:54:38;;;;;;;8.02;6.35;;;13.10;76.30;;;;;;5037589;28;20403;-71
2021/04/26 11:57:11;;;;;;;8.32;6.50;;;13.20;77.30;;;;;;5037574;28;20090;-71
2021/04/26 11:59:48;;;;;;;10.18;6.50;;;13.50;76.40;;;;;;5037613;28;20025;-73
2021/04/26 12:02:22;;;;;;;9.25;5.97;;;13.60;74.30;;;;;;5037832;28;20380;-73
2021/04/26 12:04:48;;;;;;;12.60;7.18;;;13.70;74.60;;;;;;5037730;28;20025;-71
2021/04/26 12:07:14;;;;;;;8.95;6.18;;;13.70;72.80;;;;;;5037702;28;20026;-71
2021/04/26 12:09:40;;;;;;;9.68;5.68;;;13.90;73.40;;;;;;5037699;28;20056;-71
2021/04/26 12:12:10;;;;;;;9.20;6.07;;;14.10;73.00;;;;;;5037711;28;20033;-71
2021/04/26 12:14:36;;;;;;;8.68;6.25;;;14.20;73.70;;;;;;5037263;28;20104;-71
2021/04/26 12:17:28;;;;;;;8.18;6.32;;;14.40;72.60;;;;;;5037497;28;20068;-71
2021/04/26 12:19:55;;;;;;;9.18;5.97;;;14.40;71.70;;;;;;5036934;28;20505;-72
2021/04/26 12:22:24;;;;;;;9.95;6.55;;;14.40;73.70;;;;;;5037519;28;20287;-71
2021/04/26 12:24:54;;;;;;;10.23;6.75;;;14.20;73.80;;;;;;5037014;28;20400;-72
2021/04/26 12:27:24;;;;;;;8.55;6.30;;;14.20;73.30;;;;;;5037420;28;20051;-71
2021/04/26 12:29:51;;;;;;;11.70;7.13;;;14.30;70.40;;;;;;5037367;28;20295;-72
2021/04/26 12:32:24;;;;;;;10.88;6.40;;;14.30;70.50;;;;;;5037298;28;20029;-71
2021/04/26 12:34:55;;;;;;;9.68;6.15;;;14.20;70.10;;;;;;5036927;28;20041;-71
2021/04/26 12:37:24;;;;;;;12.55;6.60;;;14.10;72.90;;;;;;5037181;28;20033;-71
2021/04/26 12:39:50;;;;;;;9.80;6.90;;;14.00;73.80;;;;;;5036741;28;20045;-73
2021/04/26 12:42:19;;;;;;;8.73;6.80;;;14.00;73.00;;;;;;5037209;28;20026;-71
2021/04/26 12:44:47;;;;;;;9.15;6.60;;;13.90;75.60;;;;;;5036753;28;20018;-71
2021/04/26 12:47:24;;;;;;;9.13;7.28;;;13.80;75.50;;;;;;5037092;28;20034;-71
2021/04/26 12:50:24;;;;;;;9.68;6.88;;;13.80;76.10;;;;;;5036776;28;20502;-71
2021/04/26 12:53:22;;;;;;;10.00;6.63;;;13.80;75.10;;;;;;5036698;28;20083;-71